»·PEaware :: WAT169 KDEN-KLAS

WAT169 :: KDEN-KLAS

FLIGHT INFORMATION

Flight Status: Arrived
Operator:
Walker Air Transport
More flights by this operator :: More flights under this callsign
Pilot: Marty P. (27464)
Aircraft: BOEING 737-800
(B738)
More flights by this aircraft type
Origin: KDEN Denver Intl
United States
Destination: KLAS McCarran Intl
United States
More flights between these airports :: More routes between these airports
Route: +CONNR7 WERNR ZAKRY GGAPP SITEE4
File this flight plan on PilotEdge
Remarks:
Altitude:
(Current/Filed)
38,000ft
Speed:
(Current/Filed)
480kts
Departed: 26-Sep-20 08:49 PM
Arrived: 26-Sep-20 10:10 PM
Distance/Time
Traveled:
545nm/1:21
Distance/Time
To Go:
Arrived

Flight Plot

Page will automatically refresh every two minutes.

Flight plan parsing failed; only flown route is shown


Map Options




Map Legend


Flown Route
Filed Route
Departure Airport
Arrival Airport
Navaid (VOR, NDB)
Fix

Horizontal Profiles

Position Reports

Time Latitude Longitude Heading Altitude Ground
Speed
26-Sep-20 20:21 39.858053 -104.679499 359 5445ft 0kts
26-Sep-20 20:22 39.858053 -104.679499 359 5445ft 0kts
26-Sep-20 20:23 39.858053 -104.679499 359 5445ft 0kts
26-Sep-20 20:24 39.858053 -104.679499 359 5445ft 0kts
26-Sep-20 20:25 39.858053 -104.679499 359 5445ft 0kts
26-Sep-20 20:26 39.858053 -104.679499 359 5444ft 0kts
26-Sep-20 20:27 39.858053 -104.679499 359 5444ft 0kts
26-Sep-20 20:28 39.858053 -104.679499 359 5444ft 0kts
26-Sep-20 20:29 39.858052 -104.679499 359 5444ft 0kts
26-Sep-20 20:30 39.858052 -104.679499 359 5444ft 0kts
26-Sep-20 20:31 39.858052 -104.679499 359 5444ft 0kts
26-Sep-20 20:32 39.858052 -104.679499 359 5444ft 0kts
26-Sep-20 20:33 39.858052 -104.679499 359 5444ft 0kts
26-Sep-20 20:34 39.858052 -104.679499 359 5444ft 0kts
26-Sep-20 20:35 39.858052 -104.679499 359 5444ft 0kts
26-Sep-20 20:36 39.858052 -104.679499 359 5444ft 0kts
26-Sep-20 20:37 39.857943 -104.679500 359 5444ft 2kts
26-Sep-20 20:38 39.857352 -104.679503 0 5444ft 2kts
26-Sep-20 20:39 39.856815 -104.679416 320 5444ft 2kts
26-Sep-20 20:40 39.856684 -104.679528 270 5444ft 7kts
26-Sep-20 20:41 39.856691 -104.680843 271 5444ft 0kts
26-Sep-20 20:42 39.856691 -104.680844 270 5444ft 0kts
26-Sep-20 20:43 39.856701 -104.681577 270 5444ft 6kts
26-Sep-20 20:44 39.855301 -104.684011 180 5444ft 17kts
26-Sep-20 20:45 39.848605 -104.684097 179 5444ft 25kts
26-Sep-20 20:46 39.843179 -104.684152 180 5444ft 7kts
26-Sep-20 20:47 39.841066 -104.684199 188 5444ft 13kts
26-Sep-20 20:48 39.840764 -104.701934 269 5444ft 146kts
26-Sep-20 20:49 39.841674 -104.771805 272 6691ft 216kts
26-Sep-20 20:50 39.842301 -104.862470 273 8999ft 260kts
26-Sep-20 20:52 39.833524 -104.958798 257 11315ft 300kts
26-Sep-20 20:53 39.809337 -105.075971 256 12821ft 368kts
26-Sep-20 20:54 39.782117 -105.208818 257 15865ft 376kts
26-Sep-20 20:55 39.756430 -105.334693 258 19869ft 346kts
26-Sep-20 20:56 39.730934 -105.459678 258 21707ft 368kts
26-Sep-20 20:57 39.704198 -105.589806 258 23778ft 377kts
26-Sep-20 20:58 39.680925 -105.723946 262 25605ft 384kts
26-Sep-20 20:59 39.662114 -105.861240 262 27507ft 387kts
26-Sep-20 21:00 39.643460 -105.997458 262 29620ft 380kts
26-Sep-20 21:01 39.624226 -106.137479 262 29921ft 413kts
26-Sep-20 21:02 39.603606 -106.285907 262 31180ft 418kts
26-Sep-20 21:03 39.582874 -106.433567 263 32653ft 415kts
26-Sep-20 21:04 39.562104 -106.580190 263 33962ft 413kts
26-Sep-20 21:05 39.529902 -106.723592 254 35141ft 418kts
26-Sep-20 21:06 39.487477 -106.863251 254 36253ft 417kts
26-Sep-20 21:07 39.444052 -107.002354 254 37163ft 418kts
26-Sep-20 21:08 39.400015 -107.142077 255 37926ft 420kts
26-Sep-20 21:09 39.353652 -107.282572 253 38176ft 433kts
26-Sep-20 21:09 39.312016 -107.401901 253 38114ft 444kts
26-Sep-20 21:10 39.260865 -107.549038 253 38036ft 452kts
26-Sep-20 21:11 39.209289 -107.697075 252 38036ft 455kts
26-Sep-20 21:13 39.148283 -107.871297 252 38046ft 458kts
26-Sep-20 21:13 39.104434 -107.996042 252 38054ft 460kts
26-Sep-20 21:14 39.051500 -108.146004 252 38026ft 462kts
26-Sep-20 21:15 38.998008 -108.296804 252 38010ft 464kts
26-Sep-20 21:16 38.944150 -108.447880 252 38006ft 465kts
26-Sep-20 21:17 38.890002 -108.599040 252 38000ft 466kts
26-Sep-20 21:18 38.835760 -108.749626 251 38000ft 466kts
26-Sep-20 21:19 38.781142 -108.900516 251 38000ft 467kts
26-Sep-20 21:20 38.726228 -109.051511 251 37989ft 468kts
26-Sep-20 21:21 38.670967 -109.202639 251 37966ft 469kts
26-Sep-20 21:22 38.615453 -109.353669 251 37981ft 470kts
26-Sep-20 21:23 38.559532 -109.505028 251 37981ft 472kts
26-Sep-20 21:24 38.503349 -109.656319 250 37982ft 473kts
26-Sep-20 21:25 38.446584 -109.808301 250 37981ft 476kts
26-Sep-20 21:26 38.389206 -109.961190 250 37981ft 478kts
26-Sep-20 21:27 38.331731 -110.113598 250 37994ft 479kts
26-Sep-20 21:28 38.273822 -110.266386 250 38019ft 480kts
26-Sep-20 21:29 38.215583 -110.419279 250 38028ft 480kts
26-Sep-20 21:30 38.157275 -110.571587 250 38027ft 480kts
26-Sep-20 21:31 38.098659 -110.723905 249 38027ft 480kts
26-Sep-20 21:32 38.039735 -110.876235 249 38027ft 480kts
26-Sep-20 21:33 37.980701 -111.028214 248 38025ft 482kts
26-Sep-20 21:34 37.920971 -111.181148 248 38067ft 485kts
26-Sep-20 21:35 37.861122 -111.333586 248 38219ft 484kts
26-Sep-20 21:36 37.801030 -111.485947 249 38265ft 485kts
26-Sep-20 21:37 37.740450 -111.638791 249 38265ft 486kts
26-Sep-20 21:38 37.679800 -111.791023 248 38265ft 487kts
26-Sep-20 21:39 37.618711 -111.943624 248 38265ft 487kts
26-Sep-20 21:40 37.557351 -112.096177 248 38271ft 488kts
26-Sep-20 21:41 37.486072 -112.242627 242 38274ft 493kts
26-Sep-20 21:42 37.414694 -112.385764 243 36717ft 472kts
26-Sep-20 21:43 37.348308 -112.521908 243 35150ft 452kts
26-Sep-20 21:44 37.282446 -112.658069 242 33958ft 463kts
26-Sep-20 21:45 37.215679 -112.795818 242 32424ft 461kts
26-Sep-20 21:46 37.147824 -112.935489 242 30921ft 473kts
26-Sep-20 21:47 37.078975 -113.076604 242 29195ft 479kts
26-Sep-20 21:48 37.009453 -113.218519 242 27293ft 480kts
26-Sep-20 21:49 36.939016 -113.361742 242 25385ft 485kts
26-Sep-20 21:50 36.870171 -113.501045 242 23477ft 463kts
26-Sep-20 21:51 36.803262 -113.636023 241 21573ft 452kts
26-Sep-20 21:52 36.738617 -113.765602 240 19724ft 430kts
26-Sep-20 21:53 36.675442 -113.891072 240 18225ft 424kts
26-Sep-20 21:54 36.613180 -114.013939 240 16719ft 416kts
26-Sep-20 21:55 36.551407 -114.134499 238 15608ft 416kts
26-Sep-20 21:56 36.490824 -114.250933 239 14218ft 379kts
26-Sep-20 21:57 36.437342 -114.355084 239 12998ft 339kts
26-Sep-20 21:58 36.388913 -114.449303 239 11981ft 303kts
26-Sep-20 21:59 36.343512 -114.537290 239 11153ft 300kts
26-Sep-20 22:00 36.295072 -114.620096 222 9981ft 290kts
26-Sep-20 22:01 36.221225 -114.663865 199 9341ft 293kts
26-Sep-20 22:02 36.144642 -114.696704 199 8542ft 289kts
26-Sep-20 22:03 36.082243 -114.745360 240 8006ft 243kts
26-Sep-20 22:04 36.073585 -114.828207 268 7049ft 252kts
26-Sep-20 22:05 36.073613 -114.910650 268 5668ft 222kts
26-Sep-20 22:06 36.073676 -114.981164 268 4523ft 199kts
26-Sep-20 22:07 36.073714 -115.045742 268 3482ft 161kts
26-Sep-20 22:08 36.073665 -115.099824 268 2644ft 150kts
26-Sep-20 22:09 36.073669 -115.142454 275 2191ft 25kts
26-Sep-20 22:10 36.074968 -115.146276 318 2191ft 6kts
26-Sep-20 22:11 36.078366 -115.147187 356 2191ft 11kts
26-Sep-20 22:12 36.079525 -115.146712 29 2191ft 0kts

Navigation Log

Ident Type
Flight plan parsing failed, navigation log unavailable